createdAt,value
2022-08-24T00:00:10.803Z,6.15
2022-08-24T00:02:37.608Z,5.75
2022-08-24T00:05:05.314Z,5.80
2022-08-24T00:07:32.379Z,5.80
2022-08-24T00:10:00.592Z,5.85
2022-08-24T00:12:28.323Z,5.72
2022-08-24T00:14:56.450Z,5.68
2022-08-24T00:17:23.353Z,5.70
2022-08-24T00:19:50.411Z,5.68
2022-08-24T00:22:17.501Z,5.85
2022-08-24T00:24:44.474Z,6.10
2022-08-24T00:27:12.523Z,5.72
2022-08-24T00:29:39.531Z,5.90
2022-08-24T00:32:06.622Z,6.13
2022-08-24T00:34:34.311Z,5.78
2022-08-24T00:37:01.043Z,5.70
2022-08-24T00:39:28.134Z,6.03
2022-08-24T00:41:55.079Z,6.18
2022-08-24T00:44:23.228Z,5.93
2022-08-24T00:46:58.542Z,6.18
2022-08-24T00:49:37.741Z,5.75
2022-08-24T00:52:22.165Z,5.70
2022-08-24T00:54:55.729Z,5.63
2022-08-24T00:57:27.776Z,6.13
2022-08-24T01:00:06.372Z,5.80
2022-08-24T01:02:35.372Z,5.50
2022-08-24T01:05:06.645Z,5.70
2022-08-24T01:07:35.440Z,5.65
2022-08-24T01:10:11.868Z,5.65
2022-08-24T01:12:42.226Z,5.80
2022-08-24T01:15:27.772Z,5.78
2022-08-24T01:18:13.391Z,5.75
2022-08-24T01:20:40.270Z,6.18
2022-08-24T01:23:28.228Z,6.10
2022-08-24T01:26:03.211Z,5.70
2022-08-24T01:28:30.542Z,6.10
2022-08-24T01:30:58.726Z,5.78
2022-08-24T01:33:29.373Z,6.20
2022-08-24T01:36:03.025Z,6.53
2022-08-24T01:41:01.020Z,6.32
2022-08-24T01:43:28.203Z,5.85
2022-08-24T01:45:57.472Z,6.68
2022-08-24T01:48:24.098Z,6.47
2022-08-24T01:50:50.980Z,6.32
2022-08-24T01:53:17.860Z,6.20
2022-08-24T01:55:44.962Z,6.38
2022-08-24T01:58:12.511Z,5.95
2022-08-24T02:00:39.657Z,6.15
2022-08-24T02:03:07.195Z,5.78
2022-08-24T02:05:35.275Z,5.78
2022-08-24T02:08:02.496Z,5.60
2022-08-24T02:10:30.068Z,5.63
2022-08-24T02:12:58.449Z,5.72
2022-08-24T02:15:27.533Z,5.65
2022-08-24T02:17:55.438Z,5.43
2022-08-24T02:20:22.443Z,6.03
2022-08-24T02:22:52.967Z,6.05
2022-08-24T02:25:20.646Z,6.03
2022-08-24T02:27:47.296Z,5.65
2022-08-24T02:30:15.140Z,5.55
2022-08-24T02:32:42.058Z,5.95
2022-08-24T02:35:09.852Z,6.15
2022-08-24T02:37:36.523Z,5.75
2022-08-24T02:40:12.544Z,6.97
2022-08-24T02:42:39.824Z,5.78
2022-08-24T02:45:07.425Z,5.65
2022-08-24T02:47:38.826Z,5.80
2022-08-24T02:50:08.705Z,5.70
2022-08-24T02:52:37.260Z,5.85
2022-08-24T02:55:04.876Z,5.57
2022-08-24T02:57:31.641Z,5.38
2022-08-24T02:59:58.326Z,5.70
2022-08-24T03:02:25.208Z,5.50
2022-08-24T03:04:51.954Z,5.53
2022-08-24T03:07:19.045Z,5.80
2022-08-24T03:09:45.699Z,5.45
2022-08-24T03:12:12.397Z,5.82
2022-08-24T03:14:41.817Z,5.88
2022-08-24T03:17:08.431Z,5.15
2022-08-24T03:19:35.157Z,5.15
2022-08-24T03:22:01.985Z,5.40
2022-08-24T03:24:28.636Z,5.47
2022-08-24T03:26:55.368Z,5.50
2022-08-24T03:29:22.083Z,5.65
2022-08-24T03:31:50.959Z,5.05
2022-08-24T03:34:19.856Z,5.32
2022-08-24T03:36:47.016Z,5.15
2022-08-24T03:39:15.480Z,5.40
2022-08-24T03:41:42.614Z,6.30
2022-08-24T03:44:09.276Z,5.18
2022-08-24T03:46:37.805Z,5.72
2022-08-24T03:49:08.773Z,5.80
2022-08-24T03:51:36.621Z,5.72
2022-08-24T03:54:05.419Z,5.28
2022-08-24T03:56:32.726Z,5.72
2022-08-24T03:58:59.393Z,5.40
2022-08-24T04:01:26.070Z,5.50
2022-08-24T04:03:56.410Z,5.60
2022-08-24T04:06:23.780Z,6.47
2022-08-24T04:08:51.148Z,5.28
2022-08-24T04:11:21.599Z,5.57
2022-08-24T04:13:48.264Z,5.60
2022-08-24T04:16:17.696Z,6.55
2022-08-24T04:18:44.883Z,5.55
2022-08-24T04:21:23.438Z,5.40
2022-08-24T04:23:52.341Z,5.55
2022-08-24T04:26:43.928Z,5.35
2022-08-24T04:29:10.328Z,5.40
2022-08-24T04:31:38.513Z,5.30
2022-08-24T04:34:06.377Z,5.90
2022-08-24T04:36:33.602Z,5.68
2022-08-24T04:39:01.132Z,5.72
2022-08-24T04:41:31.477Z,5.75
2022-08-24T04:43:59.516Z,5.45
2022-08-24T04:46:27.197Z,5.78
2022-08-24T04:48:53.896Z,5.90
2022-08-24T04:51:21.673Z,5.93
2022-08-24T04:53:50.340Z,5.22
2022-08-24T04:56:20.313Z,5.50
2022-08-24T04:58:47.845Z,5.97
2022-08-24T05:01:19.437Z,5.40
2022-08-24T05:03:50.544Z,5.70
2022-08-24T05:06:25.313Z,5.97
2022-08-24T05:08:52.358Z,5.95
2022-08-24T05:11:20.354Z,5.85
2022-08-24T05:13:47.230Z,5.38
2022-08-24T05:16:18.013Z,5.75
2022-08-24T05:18:46.065Z,5.55
2022-08-24T05:21:19.032Z,5.72
2022-08-24T05:23:46.632Z,5.97
2022-08-24T05:26:17.982Z,5.60
2022-08-24T05:28:45.334Z,5.68
2022-08-24T05:31:17.625Z,6.82
2022-08-24T05:33:45.075Z,6.40
2022-08-24T05:36:19.947Z,5.55
2022-08-24T05:38:48.123Z,5.50
2022-08-24T05:41:15.812Z,5.35
2022-08-24T05:43:43.140Z,6.05
2022-08-24T05:46:10.378Z,5.53
2022-08-24T05:48:37.881Z,5.35
2022-08-24T05:51:06.103Z,5.35
2022-08-24T05:53:36.302Z,5.22
2022-08-24T05:56:08.402Z,5.35
2022-08-24T05:58:35.433Z,5.93
2022-08-24T06:01:15.717Z,5.82
2022-08-24T06:03:42.616Z,5.80
2022-08-24T06:06:11.137Z,5.80
2022-08-24T06:08:41.736Z,6.05
2022-08-24T06:11:10.098Z,5.68
2022-08-24T06:13:36.836Z,6.15
2022-08-24T06:16:22.175Z,5.35
2022-08-24T06:18:49.927Z,5.95
2022-08-24T06:21:20.854Z,5.38
2022-08-24T06:23:48.028Z,5.57
2022-08-24T06:26:33.391Z,5.32
2022-08-24T06:29:03.236Z,5.65
2022-08-24T06:31:39.373Z,5.28
2022-08-24T06:34:12.305Z,5.38
2022-08-24T06:36:40.134Z,5.38
2022-08-24T06:39:10.020Z,5.30
2022-08-24T06:41:38.292Z,6.28
2022-08-24T06:44:05.948Z,5.82
2022-08-24T06:46:33.424Z,4.00
2022-08-24T06:49:00.660Z,4.90
2022-08-24T06:51:27.261Z,5.85
2022-08-24T06:53:56.183Z,5.68
2022-08-24T06:56:23.178Z,5.40
2022-08-24T06:58:50.369Z,5.05
2022-08-24T07:01:20.707Z,5.22
2022-08-24T07:03:47.717Z,5.70
2022-08-24T07:06:15.270Z,5.53
2022-08-24T07:08:43.176Z,5.75
2022-08-24T07:11:12.489Z,5.60
2022-08-24T07:13:39.190Z,5.13
2022-08-24T07:16:06.351Z,4.90
2022-08-24T07:18:33.439Z,5.20
2022-08-24T07:21:03.726Z,4.90
2022-08-24T07:23:42.148Z,4.25
2022-08-24T07:26:15.133Z,4.38
2022-08-24T07:29:01.410Z,4.20
2022-08-24T07:31:32.027Z,4.55
2022-08-24T07:34:01.641Z,4.50
2022-08-24T07:36:28.645Z,4.63
2022-08-24T07:38:55.495Z,4.07
2022-08-24T07:41:56.649Z,4.60
2022-08-24T07:44:13.593Z,4.05
2022-08-24T07:46:41.370Z,4.22
2022-08-24T07:49:29.311Z,3.90
2022-08-24T07:51:55.913Z,3.78
2022-08-24T07:54:22.614Z,4.75
2022-08-24T07:56:50.311Z,3.85
2022-08-24T07:59:17.615Z,4.00
2022-08-24T08:01:44.697Z,3.70
2022-08-24T08:04:11.520Z,4.10
2022-08-24T08:06:38.232Z,3.80
2022-08-24T08:09:05.893Z,3.83
2022-08-24T08:11:32.546Z,3.90
2022-08-24T08:13:59.598Z,4.10
2022-08-24T08:16:26.531Z,3.85
2022-08-24T08:19:09.415Z,4.10
2022-08-24T08:22:00.897Z,3.95
2022-08-24T08:24:30.257Z,4.07
2022-08-24T08:27:01.369Z,4.43
2022-08-24T08:29:31.596Z,3.70
2022-08-24T08:31:58.542Z,3.70
2022-08-24T08:34:25.558Z,3.47
2022-08-24T08:36:52.291Z,4.22
2022-08-24T08:39:21.249Z,3.90
2022-08-24T08:42:19.171Z,3.70
2022-08-24T08:44:52.335Z,4.10
2022-08-24T08:47:43.814Z,3.70
2022-08-24T08:50:21.967Z,3.13
2022-08-24T08:53:07.625Z,2.90
2022-08-24T08:55:41.486Z,3.05
2022-08-24T08:58:11.471Z,2.83
2022-08-24T09:00:50.253Z,2.97
2022-08-24T09:03:39.961Z,3.65
2022-08-24T09:06:32.659Z,2.90
2022-08-24T09:09:44.152Z,3.50
2022-08-24T09:13:04.986Z,3.33
2022-08-24T09:15:43.396Z,2.88
2022-08-24T09:18:10.030Z,3.17
2022-08-24T09:20:45.670Z,2.85
2022-08-24T09:23:46.628Z,2.95
2022-08-24T09:26:29.256Z,2.65
2022-08-24T09:29:14.093Z,3.20
2022-08-24T09:32:13.024Z,2.95
2022-08-24T09:35:09.442Z,2.90
2022-08-24T09:38:05.037Z,2.97
2022-08-24T09:41:08.922Z,2.90
2022-08-24T09:46:40.598Z,2.88
2022-08-24T09:49:18.889Z,3.00
2022-08-24T09:51:49.166Z,2.97
2022-08-24T09:54:21.452Z,2.63
2022-08-24T09:57:09.341Z,3.08
2022-08-24T09:59:51.135Z,2.88
2022-08-24T10:02:46.829Z,3.17
2022-08-24T10:05:27.576Z,2.80
2022-08-24T10:08:17.239Z,2.60
2022-08-24T10:10:59.401Z,2.85
2022-08-24T10:13:35.063Z,2.80
2022-08-24T10:16:16.218Z,2.60
2022-08-24T10:18:52.338Z,2.25
2022-08-24T10:21:38.350Z,2.63
2022-08-24T10:24:29.207Z,2.58
2022-08-24T10:27:05.789Z,2.60
2022-08-24T10:29:41.694Z,2.80
2022-08-24T10:32:43.799Z,2.72
2022-08-24T10:35:15.922Z,3.10
2022-08-24T10:38:38.695Z,2.50
2022-08-24T10:41:16.319Z,2.78
2022-08-24T10:43:46.348Z,2.88
2022-08-24T10:46:25.677Z,2.72
2022-08-24T10:48:58.559Z,2.45
2022-08-24T10:51:37.560Z,2.53
2022-08-24T10:54:04.975Z,2.20
2022-08-24T10:56:53.387Z,2.17
2022-08-24T10:59:27.964Z,2.65
2022-08-24T11:02:27.575Z,2.60
2022-08-24T11:05:05.774Z,2.40
2022-08-24T11:07:33.524Z,2.70
2022-08-24T11:10:02.934Z,2.63
2022-08-24T11:12:56.493Z,2.50
2022-08-24T11:15:28.246Z,2.38
2022-08-24T11:17:58.081Z,2.42
2022-08-24T11:20:32.445Z,2.35
2022-08-24T11:23:30.975Z,2.25
2022-08-24T11:26:06.299Z,17.08
2022-08-24T11:28:52.589Z,2.60
2022-08-24T11:31:38.711Z,2.38
2022-08-24T11:34:08.817Z,2.50
2022-08-24T11:36:38.029Z,2.30
2022-08-24T11:39:36.920Z,2.72
2022-08-24T11:42:15.733Z,2.60
2022-08-24T11:44:49.937Z,2.35
2022-08-24T11:47:20.157Z,2.40
2022-08-24T11:49:52.967Z,2.65
2022-08-24T11:52:39.609Z,3.38
2022-08-24T11:55:14.531Z,3.17
2022-08-24T11:58:02.400Z,3.50
2022-08-24T12:00:44.223Z,3.05
2022-08-24T12:03:23.728Z,3.13
2022-08-24T12:05:59.735Z,3.13
2022-08-24T12:08:45.933Z,3.10
2022-08-24T12:11:23.747Z,2.80
2022-08-24T12:13:58.523Z,2.60
2022-08-24T12:16:47.397Z,3.13
2022-08-24T12:19:23.951Z,3.20
2022-08-24T12:21:58.057Z,2.97
2022-08-24T12:24:32.534Z,3.25
2022-08-24T12:27:20.516Z,2.70
2022-08-24T12:29:56.472Z,2.92
2022-08-24T12:32:46.962Z,2.90
2022-08-24T12:35:32.155Z,2.88
2022-08-24T12:38:19.511Z,2.80
2022-08-24T12:40:56.568Z,2.90
2022-08-24T12:43:38.227Z,2.63
2022-08-24T12:46:06.917Z,2.83
2022-08-24T12:48:46.043Z,2.70
2022-08-24T12:51:20.716Z,2.67
2022-08-24T12:53:59.803Z,2.60
2022-08-24T12:56:47.920Z,2.70
2022-08-24T12:59:36.806Z,2.75
2022-08-24T13:02:26.988Z,2.70
2022-08-24T13:04:53.864Z,2.70
2022-08-24T13:07:23.677Z,2.50
2022-08-24T13:09:56.085Z,2.35
2022-08-24T13:12:39.247Z,2.42
2022-08-24T13:15:24.257Z,2.25
2022-08-24T13:18:12.328Z,2.55
2022-08-24T13:20:45.170Z,2.40
2022-08-24T13:23:11.902Z,2.35
2022-08-24T13:25:47.607Z,2.30
2022-08-24T13:28:20.776Z,2.33
2022-08-24T13:30:53.767Z,2.20
2022-08-24T13:33:31.031Z,2.10
2022-08-24T13:36:31.731Z,2.15
2022-08-24T13:39:17.858Z,2.40
2022-08-24T13:41:47.922Z,2.70
2022-08-24T13:44:23.552Z,2.30
2022-08-24T13:47:27.029Z,2.15
2022-08-24T13:50:10.207Z,2.28
2022-08-24T13:52:58.541Z,2.50
2022-08-24T13:55:40.791Z,2.30
2022-08-24T13:58:07.867Z,2.47
2022-08-24T14:00:41.825Z,2.33
2022-08-24T14:03:23.326Z,2.47
2022-08-24T14:06:24.528Z,2.60
2022-08-24T14:09:29.697Z,2.63
2022-08-24T14:12:30.603Z,2.22
2022-08-24T14:15:17.617Z,2.60
2022-08-24T14:17:55.381Z,2.35
2022-08-24T14:20:51.701Z,2.45
2022-08-24T14:23:27.376Z,2.53
2022-08-24T14:26:31.619Z,2.47
2022-08-24T14:29:18.491Z,2.67
2022-08-24T14:32:11.635Z,2.55
2022-08-24T14:34:42.384Z,2.53
2022-08-24T14:37:16.422Z,2.55
2022-08-24T14:40:26.544Z,2.63
2022-08-24T14:43:00.233Z,2.60
2022-08-24T14:45:26.904Z,2.53
2022-08-24T14:48:16.899Z,2.20
2022-08-24T14:50:58.580Z,2.10
2022-08-24T14:53:25.206Z,2.40
2022-08-24T14:56:26.077Z,1.85
2022-08-24T14:59:22.782Z,2.40
2022-08-24T15:01:59.289Z,2.30
2022-08-24T15:04:43.045Z,2.55
2022-08-24T15:07:28.682Z,2.30
2022-08-24T15:09:56.157Z,2.22
2022-08-24T15:12:42.638Z,2.35
2022-08-24T15:15:24.455Z,2.20
2022-08-24T15:18:18.881Z,2.10
2022-08-24T15:21:09.049Z,2.30
2022-08-24T15:23:49.512Z,2.22
2022-08-24T15:26:32.269Z,2.10
2022-08-24T15:28:59.594Z,2.38
2022-08-24T15:31:29.348Z,2.33
2022-08-24T15:34:00.477Z,2.30
2022-08-24T15:36:28.446Z,2.50
2022-08-24T15:38:55.366Z,2.25
2022-08-24T15:41:28.736Z,2.25
2022-08-24T15:44:01.962Z,2.10
2022-08-24T15:46:40.686Z,2.30
2022-08-24T15:49:20.451Z,2.20
2022-08-24T15:52:01.329Z,2.20
2022-08-24T15:54:45.271Z,2.20
2022-08-24T15:57:27.934Z,2.03
2022-08-24T16:00:05.713Z,1.90
2022-08-24T16:02:35.915Z,2.20
2022-08-24T16:05:02.653Z,2.10
2022-08-24T16:07:54.260Z,2.00
2022-08-24T16:10:55.739Z,1.92
2022-08-24T16:13:29.167Z,1.90
2022-08-24T16:16:09.073Z,2.42
2022-08-24T16:18:41.936Z,1.92
2022-08-24T16:21:39.871Z,2.08
2022-08-24T16:24:23.404Z,1.70
2022-08-24T16:26:54.540Z,1.70
2022-08-24T16:29:36.576Z,1.80
2022-08-24T16:32:21.650Z,1.80
2022-08-24T16:35:17.548Z,2.10
2022-08-24T16:37:44.339Z,1.60
2022-08-24T16:40:11.470Z,1.80
2022-08-24T16:42:39.871Z,2.08
2022-08-24T16:45:10.167Z,1.83
2022-08-24T16:47:37.281Z,1.80
2022-08-24T16:50:04.750Z,2.10
2022-08-24T16:52:31.463Z,1.80
2022-08-24T16:54:58.260Z,1.90
2022-08-24T16:57:29.693Z,1.77
2022-08-24T16:59:56.903Z,1.88
2022-08-24T17:02:25.817Z,1.70
2022-08-24T17:04:54.729Z,1.80
2022-08-24T17:07:27.686Z,1.90
2022-08-24T17:09:54.730Z,1.98
2022-08-24T17:12:22.448Z,1.80
2022-08-24T17:14:49.287Z,1.92
2022-08-24T17:17:21.381Z,1.85
2022-08-24T17:19:53.658Z,2.00
2022-08-24T17:22:21.584Z,1.70
2022-08-24T17:24:48.952Z,1.70
2022-08-24T17:27:16.538Z,1.90
2022-08-24T17:29:44.774Z,1.60
2022-08-24T17:32:12.995Z,1.90
2022-08-24T17:34:41.087Z,1.90
2022-08-24T17:37:08.429Z,1.80
2022-08-24T17:39:35.298Z,1.88
2022-08-24T17:42:03.682Z,2.08
2022-08-24T17:44:33.592Z,1.92
2022-08-24T17:47:03.807Z,2.17
2022-08-24T17:49:31.579Z,1.70
2022-08-24T17:51:59.074Z,1.63
2022-08-24T17:54:28.432Z,1.98
2022-08-24T17:56:55.346Z,1.80
2022-08-24T17:59:34.849Z,1.95
2022-08-24T18:02:08.981Z,1.80
2022-08-24T18:04:37.023Z,1.92
2022-08-24T18:07:09.583Z,2.00
2022-08-24T18:09:51.037Z,2.05
2022-08-24T18:12:21.696Z,1.90
2022-08-24T18:14:49.068Z,2.10
2022-08-24T18:17:22.755Z,2.05
2022-08-24T18:19:52.865Z,1.95
2022-08-24T18:22:19.744Z,1.80
2022-08-24T18:24:46.597Z,2.10
2022-08-24T18:27:21.818Z,1.90
2022-08-24T18:29:54.701Z,2.08
2022-08-24T18:32:21.830Z,2.13
2022-08-24T18:34:48.942Z,2.10
2022-08-24T18:37:15.802Z,1.90
2022-08-24T18:39:42.403Z,2.08
2022-08-24T18:42:10.951Z,2.10
2022-08-24T18:44:39.209Z,2.33
2022-08-24T18:47:06.120Z,1.80
2022-08-24T18:49:33.195Z,1.92
2022-08-24T18:52:00.552Z,2.20
2022-08-24T18:54:36.070Z,1.80
2022-08-24T18:57:04.387Z,2.17
2022-08-24T18:59:30.978Z,2.00
2022-08-24T19:02:16.827Z,1.90
2022-08-24T19:04:47.672Z,2.00
2022-08-24T19:07:15.057Z,1.83
2022-08-24T19:09:41.917Z,2.20
2022-08-24T19:12:09.687Z,2.10
2022-08-24T19:14:37.507Z,2.30
2022-08-24T19:17:06.434Z,2.08
2022-08-24T19:19:33.479Z,2.10
2022-08-24T19:22:01.106Z,2.03
2022-08-24T19:24:29.059Z,2.00
2022-08-24T19:26:55.689Z,1.88
2022-08-24T19:32:22.535Z,2.00
2022-08-24T19:34:50.410Z,1.95
2022-08-24T19:37:17.150Z,1.95
2022-08-24T19:39:44.364Z,2.20
2022-08-24T19:42:13.057Z,2.17
2022-08-24T19:44:58.516Z,2.00
2022-08-24T19:47:25.973Z,2.13
2022-08-24T19:49:52.735Z,2.25
2022-08-24T19:52:20.382Z,2.05
2022-08-24T19:54:48.220Z,1.85
2022-08-24T19:57:48.276Z,2.30
2022-08-24T20:00:18.136Z,2.22
2022-08-24T20:02:49.732Z,2.10
2022-08-24T20:05:17.970Z,2.63
2022-08-24T20:07:46.362Z,1.85
2022-08-24T20:10:14.489Z,2.10
2022-08-24T20:12:41.646Z,1.77
2022-08-24T20:15:08.774Z,2.13
2022-08-24T20:17:36.743Z,2.22
2022-08-24T20:20:06.103Z,1.90
2022-08-24T20:22:32.759Z,2.33
2022-08-24T20:24:59.410Z,2.35
2022-08-24T20:27:27.983Z,2.10
2022-08-24T20:29:55.703Z,2.42
2022-08-24T20:32:22.930Z,2.42
2022-08-24T20:34:50.233Z,2.30
2022-08-24T20:37:24.502Z,2.40
2022-08-24T20:39:51.584Z,2.55
2022-08-24T20:42:21.297Z,1.95
2022-08-24T20:44:50.983Z,2.17
2022-08-24T20:47:18.677Z,2.33
2022-08-24T20:49:45.638Z,2.30
2022-08-24T20:52:12.633Z,2.40
2022-08-24T20:54:39.967Z,2.45
2022-08-24T20:57:09.364Z,2.65
2022-08-24T20:59:35.996Z,2.28
2022-08-24T21:02:04.098Z,2.55
2022-08-24T21:04:30.712Z,2.15
2022-08-24T21:06:57.691Z,2.40
2022-08-24T21:09:24.754Z,2.50
2022-08-24T21:11:51.407Z,2.42
2022-08-24T21:14:18.535Z,2.60
2022-08-24T21:16:46.289Z,2.47
2022-08-24T21:19:17.952Z,2.55
2022-08-24T21:21:47.216Z,2.30
2022-08-24T21:24:14.598Z,2.42
2022-08-24T21:26:41.647Z,2.30
2022-08-24T21:29:09.967Z,2.45
2022-08-24T21:31:37.678Z,2.30
2022-08-24T21:34:22.941Z,2.42
2022-08-24T21:36:52.624Z,2.38
2022-08-24T21:39:19.522Z,2.25
2022-08-24T21:41:46.653Z,2.17
2022-08-24T21:44:13.515Z,2.13
2022-08-24T21:46:40.907Z,2.72
2022-08-24T21:49:07.750Z,2.47
2022-08-24T21:51:38.823Z,2.63
2022-08-24T21:54:05.467Z,2.90
2022-08-24T21:56:33.210Z,2.20
2022-08-24T21:59:00.955Z,2.22
2022-08-24T22:01:29.000Z,2.60
2022-08-24T22:03:56.111Z,2.35
2022-08-24T22:06:22.817Z,2.40
2022-08-24T22:08:49.403Z,2.08
2022-08-24T22:11:19.571Z,2.30
2022-08-24T22:13:47.445Z,2.25
2022-08-24T22:16:14.443Z,2.40
2022-08-24T22:18:41.330Z,2.40
2022-08-24T22:21:10.189Z,2.08
2022-08-24T22:23:37.119Z,2.65
2022-08-24T22:26:04.074Z,3.70
2022-08-24T22:28:30.720Z,2.70
2022-08-24T22:30:57.802Z,2.97
2022-08-24T22:33:25.932Z,2.78
2022-08-24T22:35:52.739Z,2.25
2022-08-24T22:38:21.289Z,2.42
2022-08-24T22:40:54.712Z,2.30
2022-08-24T22:43:24.923Z,2.47
2022-08-24T22:45:51.917Z,2.38
2022-08-24T22:48:18.616Z,2.53
2022-08-24T22:50:46.362Z,2.60
2022-08-24T22:53:13.682Z,2.85
2022-08-24T22:55:40.416Z,2.47
2022-08-24T22:58:07.079Z,2.60
2022-08-24T23:00:33.713Z,2.40
2022-08-24T23:03:00.469Z,2.70
2022-08-24T23:05:27.449Z,3.00
2022-08-24T23:07:54.106Z,2.70
2022-08-24T23:10:20.899Z,2.38
2022-08-24T23:12:47.593Z,2.58
2022-08-24T23:15:14.315Z,2.50
2022-08-24T23:17:42.815Z,2.50
2022-08-24T23:20:10.581Z,2.70
2022-08-24T23:22:39.652Z,2.80
2022-08-24T23:25:09.513Z,2.40
2022-08-24T23:27:38.083Z,2.45
2022-08-24T23:30:09.216Z,2.40
2022-08-24T23:32:36.061Z,2.38
2022-08-24T23:35:06.262Z,2.42
2022-08-24T23:37:33.053Z,2.95
2022-08-24T23:39:59.957Z,2.58
2022-08-24T23:42:26.660Z,2.40
2022-08-24T23:44:53.403Z,2.72
2022-08-24T23:47:20.377Z,2.83
2022-08-24T23:49:47.171Z,2.53
2022-08-24T23:52:28.364Z,2.72
2022-08-24T23:55:20.379Z,2.88
2022-08-24T23:57:46.919Z,2.55
